CheckWX is a tool to help pilots better visualize weather data.  It is not intended as a substitute for an official pre-flight weather briefing.

12:18:40 UTC

KCMX METAR
Houghton County Memorial Airport
Hancock, Michigan, USA
Current

26 mins ago

KCMX 221153Z AUTO 28011KT 10SM OVC029 M05/M09 A3031 RMK AO2 SLP283 T10501089 11044 21050 53009
Observed
Feb-22 @ 11:53 UTC
Wind
  • 280° at 11 KTS
Visibility
10 SM
Flight Rules
MVFR
Cloud Levels
  • Overcast at 2,900' AGL
Temperature
-5°C / 23°F
Dewpoint
-9°C / 16°F
Humidity
74%
Altimeter
30.31" Hg
Pressure
1028.3 hPa
Previous

1 hour ago

KCMX 221053Z AUTO 28011KT 10SM OVC028 M05/M08 A3030 RMK AO2 SLP279 T10501083
Observed
Feb-22 @ 10:53 UTC
Wind
  • 280° at 11 KTS
Visibility
10 SM
Flight Rules
MVFR
Cloud Levels
  • Overcast at 2,800' AGL
Temperature
-5°C / 23°F
Dewpoint
-8°C / 18°F
Humidity
80%
Altimeter
30.3" Hg
Pressure
1027.9 hPa
Previous

2 hours ago

KCMX 220953Z AUTO 28010KT 10SM OVC028 M05/M08 A3029 RMK AO2 SLP274 T10501078
Observed
Feb-22 @ 09:53 UTC
Wind
  • 280° at 10 KTS
Visibility
10 SM
Flight Rules
MVFR
Cloud Levels
  • Overcast at 2,800' AGL
Temperature
-5°C / 23°F
Dewpoint
-8°C / 18°F
Humidity
80%
Altimeter
30.29" Hg
Pressure
1027.4 hPa